sensor_id;sensor_type;location;lat;lon;timestamp;P1;durP1;ratioP1;P2;durP2;ratioP2
31284;SDS011;56605;51.516;6.742;2023-03-01T00:01:17;11.77;;;6.83;;
31284;SDS011;56605;51.516;6.742;2023-03-01T00:03:43;11.77;;;6.77;;
31284;SDS011;56605;51.516;6.742;2023-03-01T00:06:08;11.50;;;7.30;;
31284;SDS011;56605;51.516;6.742;2023-03-01T00:08:34;14.63;;;7.03;;
31284;SDS011;56605;51.516;6.742;2023-03-01T00:11:04;14.23;;;7.53;;
31284;SDS011;56605;51.516;6.742;2023-03-01T00:13:29;12.60;;;6.90;;
31284;SDS011;56605;51.516;6.742;2023-03-01T00:15:55;13.63;;;6.93;;
31284;SDS011;56605;51.516;6.742;2023-03-01T00:18:20;12.40;;;6.23;;
31284;SDS011;56605;51.516;6.742;2023-03-01T00:20:52;13.07;;;6.60;;
31284;SDS011;56605;51.516;6.742;2023-03-01T00:23:17;13.57;;;6.73;;
31284;SDS011;56605;51.516;6.742;2023-03-01T00:25:43;11.63;;;6.93;;
31284;SDS011;56605;51.516;6.742;2023-03-01T00:28:08;10.33;;;6.50;;
31284;SDS011;56605;51.516;6.742;2023-03-01T00:30:33;14.57;;;5.87;;
31284;SDS011;56605;51.516;6.742;2023-03-01T00:32:58;13.97;;;7.50;;
31284;SDS011;56605;51.516;6.742;2023-03-01T00:35:23;11.27;;;6.37;;
31284;SDS011;56605;51.516;6.742;2023-03-01T00:37:49;12.43;;;6.73;;
31284;SDS011;56605;51.516;6.742;2023-03-01T00:40:22;11.53;;;6.83;;
31284;SDS011;56605;51.516;6.742;2023-03-01T00:42:47;11.43;;;6.50;;
31284;SDS011;56605;51.516;6.742;2023-03-01T00:45:12;10.27;;;6.63;;
31284;SDS011;56605;51.516;6.742;2023-03-01T00:47:38;13.07;;;6.93;;
31284;SDS011;56605;51.516;6.742;2023-03-01T00:50:03;14.63;;;7.00;;
31284;SDS011;56605;51.516;6.742;2023-03-01T00:52:28;14.47;;;7.40;;
31284;SDS011;56605;51.516;6.742;2023-03-01T00:54:54;12.53;;;6.63;;
31284;SDS011;56605;51.516;6.742;2023-03-01T00:57:19;13.83;;;7.13;;
31284;SDS011;56605;51.516;6.742;2023-03-01T00:59:44;12.57;;;6.97;;
31284;SDS011;56605;51.516;6.742;2023-03-01T01:02:09;10.33;;;6.60;;
31284;SDS011;56605;51.516;6.742;2023-03-01T01:04:34;11.33;;;7.10;;
31284;SDS011;56605;51.516;6.742;2023-03-01T01:06:59;10.43;;;5.97;;
31284;SDS011;56605;51.516;6.742;2023-03-01T01:09:25;13.87;;;7.40;;
31284;SDS011;56605;51.516;6.742;2023-03-01T01:11:50;13.53;;;6.33;;
31284;SDS011;56605;51.516;6.742;2023-03-01T01:14:16;13.43;;;7.47;;
31284;SDS011;56605;51.516;6.742;2023-03-01T01:16:41;12.47;;;7.00;;
31284;SDS011;56605;51.516;6.742;2023-03-01T01:19:07;12.50;;;7.23;;
31284;SDS011;56605;51.516;6.742;2023-03-01T01:21:32;11.53;;;7.60;;
31284;SDS011;56605;51.516;6.742;2023-03-01T01:23:57;14.00;;;7.43;;
31284;SDS011;56605;51.516;6.742;2023-03-01T01:26:24;13.40;;;6.97;;
31284;SDS011;56605;51.516;6.742;2023-03-01T01:28:49;13.77;;;7.23;;
31284;SDS011;56605;51.516;6.742;2023-03-01T01:31:15;10.93;;;6.97;;
31284;SDS011;56605;51.516;6.742;2023-03-01T01:33:40;15.90;;;7.50;;
31284;SDS011;56605;51.516;6.742;2023-03-01T01:36:06;14.07;;;7.27;;
31284;SDS011;56605;51.516;6.742;2023-03-01T01:38:31;12.50;;;7.23;;
31284;SDS011;56605;51.516;6.742;2023-03-01T01:40:56;12.17;;;6.97;;
31284;SDS011;56605;51.516;6.742;2023-03-01T01:45:50;11.77;;;6.80;;
31284;SDS011;56605;51.516;6.742;2023-03-01T01:48:20;11.60;;;7.43;;
31284;SDS011;56605;51.516;6.742;2023-03-01T01:50:54;11.33;;;6.87;;
31284;SDS011;56605;51.516;6.742;2023-03-01T01:53:20;16.53;;;7.70;;
31284;SDS011;56605;51.516;6.742;2023-03-01T01:55:47;14.07;;;7.97;;
31284;SDS011;56605;51.516;6.742;2023-03-01T01:58:14;11.80;;;7.30;;
31284;SDS011;56605;51.516;6.742;2023-03-01T02:00:40;12.20;;;6.60;;
31284;SDS011;56605;51.516;6.742;2023-03-01T02:03:12;18.70;;;8.40;;
31284;SDS011;56605;51.516;6.742;2023-03-01T02:05:46;17.83;;;7.27;;
31284;SDS011;56605;51.516;6.742;2023-03-01T02:08:12;17.57;;;7.60;;
31284;SDS011;56605;51.516;6.742;2023-03-01T02:10:38;13.87;;;8.27;;
31284;SDS011;56605;51.516;6.742;2023-03-01T02:13:04;16.40;;;9.17;;
31284;SDS011;56605;51.516;6.742;2023-03-01T02:15:32;13.53;;;8.20;;
31284;SDS011;56605;51.516;6.742;2023-03-01T02:17:58;12.73;;;7.30;;
31284;SDS011;56605;51.516;6.742;2023-03-01T02:22:49;16.47;;;8.70;;
31284;SDS011;56605;51.516;6.742;2023-03-01T02:30:38;12.47;;;6.90;;
31284;SDS011;56605;51.516;6.742;2023-03-01T02:33:24;23.10;;;7.40;;
31284;SDS011;56605;51.516;6.742;2023-03-01T02:35:50;13.23;;;7.30;;
31284;SDS011;56605;51.516;6.742;2023-03-01T02:38:15;15.23;;;7.40;;
31284;SDS011;56605;51.516;6.742;2023-03-01T02:40:41;13.70;;;7.90;;
31284;SDS011;56605;51.516;6.742;2023-03-01T02:43:07;12.73;;;7.43;;
31284;SDS011;56605;51.516;6.742;2023-03-01T02:45:34;11.67;;;7.20;;
31284;SDS011;56605;51.516;6.742;2023-03-01T02:48:00;13.17;;;7.53;;
31284;SDS011;56605;51.516;6.742;2023-03-01T02:55:56;16.63;;;7.90;;
31284;SDS011;56605;51.516;6.742;2023-03-01T02:58:22;15.33;;;8.87;;
31284;SDS011;56605;51.516;6.742;2023-03-01T03:00:47;15.93;;;9.17;;
31284;SDS011;56605;51.516;6.742;2023-03-01T03:03:14;14.93;;;8.70;;
31284;SDS011;56605;51.516;6.742;2023-03-01T03:05:40;17.47;;;9.40;;
31284;SDS011;56605;51.516;6.742;2023-03-01T03:08:05;20.23;;;9.20;;
31284;SDS011;56605;51.516;6.742;2023-03-01T03:10:34;14.23;;;7.90;;
31284;SDS011;56605;51.516;6.742;2023-03-01T03:13:01;12.77;;;7.20;;
31284;SDS011;56605;51.516;6.742;2023-03-01T03:15:27;16.93;;;8.40;;
31284;SDS011;56605;51.516;6.742;2023-03-01T03:17:52;17.97;;;8.63;;
31284;SDS011;56605;51.516;6.742;2023-03-01T03:20:19;13.43;;;8.10;;
31284;SDS011;56605;51.516;6.742;2023-03-01T03:22:45;17.60;;;7.43;;
31284;SDS011;56605;51.516;6.742;2023-03-01T03:25:11;16.67;;;8.50;;
31284;SDS011;56605;51.516;6.742;2023-03-01T03:27:37;15.00;;;8.00;;
31284;SDS011;56605;51.516;6.742;2023-03-01T03:30:03;12.07;;;7.47;;
31284;SDS011;56605;51.516;6.742;2023-03-01T03:32:30;15.53;;;7.93;;
31284;SDS011;56605;51.516;6.742;2023-03-01T03:34:55;13.93;;;7.57;;
31284;SDS011;56605;51.516;6.742;2023-03-01T03:37:20;15.57;;;7.67;;
31284;SDS011;56605;51.516;6.742;2023-03-01T03:40:04;13.77;;;8.10;;
31284;SDS011;56605;51.516;6.742;2023-03-01T03:42:40;13.77;;;7.83;;
31284;SDS011;56605;51.516;6.742;2023-03-01T03:45:05;16.20;;;8.17;;
31284;SDS011;56605;51.516;6.742;2023-03-01T03:47:30;13.50;;;7.20;;
31284;SDS011;56605;51.516;6.742;2023-03-01T03:49:55;18.40;;;9.17;;
31284;SDS011;56605;51.516;6.742;2023-03-01T03:52:21;14.27;;;8.33;;
31284;SDS011;56605;51.516;6.742;2023-03-01T03:54:46;16.60;;;8.40;;
31284;SDS011;56605;51.516;6.742;2023-03-01T03:57:11;13.63;;;7.63;;
31284;SDS011;56605;51.516;6.742;2023-03-01T03:59:36;15.67;;;8.50;;
31284;SDS011;56605;51.516;6.742;2023-03-01T04:02:01;12.97;;;7.60;;
31284;SDS011;56605;51.516;6.742;2023-03-01T04:04:26;17.57;;;9.13;;
31284;SDS011;56605;51.516;6.742;2023-03-01T04:06:52;16.03;;;9.00;;
31284;SDS011;56605;51.516;6.742;2023-03-01T04:09:17;14.60;;;7.63;;
31284;SDS011;56605;51.516;6.742;2023-03-01T04:11:42;15.17;;;7.90;;
31284;SDS011;56605;51.516;6.742;2023-03-01T04:14:07;16.03;;;7.93;;
31284;SDS011;56605;51.516;6.742;2023-03-01T04:16:32;13.57;;;7.67;;
31284;SDS011;56605;51.516;6.742;2023-03-01T04:18:57;15.13;;;8.17;;
31284;SDS011;56605;51.516;6.742;2023-03-01T04:21:24;19.10;;;7.83;;
31284;SDS011;56605;51.516;6.742;2023-03-01T04:23:50;14.07;;;7.67;;
31284;SDS011;56605;51.516;6.742;2023-03-01T04:26:17;13.47;;;8.40;;
31284;SDS011;56605;51.516;6.742;2023-03-01T04:28:43;20.07;;;7.87;;
31284;SDS011;56605;51.516;6.742;2023-03-01T04:31:11;16.43;;;7.60;;
31284;SDS011;56605;51.516;6.742;2023-03-01T04:33:44;12.03;;;7.93;;
31284;SDS011;56605;51.516;6.742;2023-03-01T04:36:10;15.67;;;7.93;;
31284;SDS011;56605;51.516;6.742;2023-03-01T04:38:36;16.27;;;8.27;;
31284;SDS011;56605;51.516;6.742;2023-03-01T04:41:03;14.33;;;8.23;;
31284;SDS011;56605;51.516;6.742;2023-03-01T04:43:28;14.43;;;8.10;;
31284;SDS011;56605;51.516;6.742;2023-03-01T04:45:53;19.80;;;8.67;;
31284;SDS011;56605;51.516;6.742;2023-03-01T04:48:18;14.10;;;8.23;;
31284;SDS011;56605;51.516;6.742;2023-03-01T04:50:43;13.63;;;7.60;;
31284;SDS011;56605;51.516;6.742;2023-03-01T04:53:09;13.97;;;7.63;;
31284;SDS011;56605;51.516;6.742;2023-03-01T04:55:34;16.65;;;8.88;;
31284;SDS011;56605;51.516;6.742;2023-03-01T04:57:59;12.67;;;7.40;;
31284;SDS011;56605;51.516;6.742;2023-03-01T05:00:24;15.33;;;7.87;;
31284;SDS011;56605;51.516;6.742;2023-03-01T05:02:51;14.00;;;7.50;;
31284;SDS011;56605;51.516;6.742;2023-03-01T05:05:18;18.07;;;8.77;;
31284;SDS011;56605;51.516;6.742;2023-03-01T05:07:44;16.23;;;7.97;;
31284;SDS011;56605;51.516;6.742;2023-03-01T05:10:09;12.07;;;7.43;;
31284;SDS011;56605;51.516;6.742;2023-03-01T05:12:34;15.57;;;8.67;;
31284;SDS011;56605;51.516;6.742;2023-03-01T05:15:03;14.17;;;7.63;;
31284;SDS011;56605;51.516;6.742;2023-03-01T05:17:32;17.33;;;8.33;;
31284;SDS011;56605;51.516;6.742;2023-03-01T05:19:57;15.23;;;7.97;;
31284;SDS011;56605;51.516;6.742;2023-03-01T05:22:24;13.20;;;7.50;;
31284;SDS011;56605;51.516;6.742;2023-03-01T05:24:49;17.90;;;8.20;;
31284;SDS011;56605;51.516;6.742;2023-03-01T05:27:15;16.60;;;8.13;;
31284;SDS011;56605;51.516;6.742;2023-03-01T05:29:40;15.00;;;8.70;;
31284;SDS011;56605;51.516;6.742;2023-03-01T05:32:05;18.73;;;8.80;;
31284;SDS011;56605;51.516;6.742;2023-03-01T05:34:34;17.30;;;8.50;;
31284;SDS011;56605;51.516;6.742;2023-03-01T05:37:00;18.73;;;8.43;;
31284;SDS011;56605;51.516;6.742;2023-03-01T05:39:26;19.40;;;8.60;;
31284;SDS011;56605;51.516;6.742;2023-03-01T05:41:55;21.70;;;9.03;;
31284;SDS011;56605;51.516;6.742;2023-03-01T05:44:21;17.20;;;8.93;;
31284;SDS011;56605;51.516;6.742;2023-03-01T05:46:49;17.77;;;9.13;;
31284;SDS011;56605;51.516;6.742;2023-03-01T05:49:14;15.97;;;8.40;;
31284;SDS011;56605;51.516;6.742;2023-03-01T05:51:40;18.93;;;9.53;;
31284;SDS011;56605;51.516;6.742;2023-03-01T05:54:06;17.73;;;8.43;;
31284;SDS011;56605;51.516;6.742;2023-03-01T05:56:32;16.20;;;8.70;;
31284;SDS011;56605;51.516;6.742;2023-03-01T05:58:57;17.23;;;9.20;;
31284;SDS011;56605;51.516;6.742;2023-03-01T06:01:22;17.37;;;8.70;;
31284;SDS011;56605;51.516;6.742;2023-03-01T06:03:48;19.00;;;9.07;;
31284;SDS011;56605;51.516;6.742;2023-03-01T06:06:13;18.40;;;9.17;;
31284;SDS011;56605;51.516;6.742;2023-03-01T06:08:38;15.27;;;8.33;;
31284;SDS011;56605;51.516;6.742;2023-03-01T06:11:03;15.70;;;9.00;;
31284;SDS011;56605;51.516;6.742;2023-03-01T06:13:28;19.37;;;8.47;;
31284;SDS011;56605;51.516;6.742;2023-03-01T06:15:54;15.87;;;8.47;;
31284;SDS011;56605;51.516;6.742;2023-03-01T06:18:19;15.60;;;8.73;;
31284;SDS011;56605;51.516;6.742;2023-03-01T06:20:45;19.33;;;8.87;;
31284;SDS011;56605;51.516;6.742;2023-03-01T06:23:10;17.73;;;9.00;;
31284;SDS011;56605;51.516;6.742;2023-03-01T06:25:35;22.17;;;9.40;;
31284;SDS011;56605;51.516;6.742;2023-03-01T06:28:00;19.27;;;9.13;;
31284;SDS011;56605;51.516;6.742;2023-03-01T06:30:26;18.07;;;9.17;;
31284;SDS011;56605;51.516;6.742;2023-03-01T06:32:51;16.87;;;8.47;;
31284;SDS011;56605;51.516;6.742;2023-03-01T06:35:17;22.60;;;7.57;;
31284;SDS011;56605;51.516;6.742;2023-03-01T06:37:42;14.90;;;7.80;;
31284;SDS011;56605;51.516;6.742;2023-03-01T06:40:08;19.33;;;8.50;;
31284;SDS011;56605;51.516;6.742;2023-03-01T06:42:36;17.37;;;9.47;;
31284;SDS011;56605;51.516;6.742;2023-03-01T06:45:01;17.50;;;9.10;;
31284;SDS011;56605;51.516;6.742;2023-03-01T06:47:27;17.43;;;8.90;;
31284;SDS011;56605;51.516;6.742;2023-03-01T06:49:52;14.90;;;8.43;;
31284;SDS011;56605;51.516;6.742;2023-03-01T06:52:17;19.17;;;9.63;;
31284;SDS011;56605;51.516;6.742;2023-03-01T06:54:42;22.67;;;9.83;;
31284;SDS011;56605;51.516;6.742;2023-03-01T06:57:07;17.30;;;9.60;;
31284;SDS011;56605;51.516;6.742;2023-03-01T06:59:33;21.07;;;9.67;;
31284;SDS011;56605;51.516;6.742;2023-03-01T07:01:58;17.27;;;9.03;;
31284;SDS011;56605;51.516;6.742;2023-03-01T07:04:23;17.13;;;8.43;;
31284;SDS011;56605;51.516;6.742;2023-03-01T07:06:48;18.60;;;9.63;;
31284;SDS011;56605;51.516;6.742;2023-03-01T07:09:20;19.60;;;10.00;;
31284;SDS011;56605;51.516;6.742;2023-03-01T07:11:46;19.07;;;10.10;;
31284;SDS011;56605;51.516;6.742;2023-03-01T07:14:12;18.43;;;9.67;;
31284;SDS011;56605;51.516;6.742;2023-03-01T07:16:37;25.50;;;10.87;;
31284;SDS011;56605;51.516;6.742;2023-03-01T07:19:02;15.70;;;9.13;;
31284;SDS011;56605;51.516;6.742;2023-03-01T07:21:27;18.37;;;9.67;;
31284;SDS011;56605;51.516;6.742;2023-03-01T07:23:52;16.03;;;9.87;;
31284;SDS011;56605;51.516;6.742;2023-03-01T07:26:17;17.27;;;9.80;;
31284;SDS011;56605;51.516;6.742;2023-03-01T07:28:43;17.13;;;8.80;;
31284;SDS011;56605;51.516;6.742;2023-03-01T07:31:08;20.23;;;9.80;;
31284;SDS011;56605;51.516;6.742;2023-03-01T07:33:33;18.73;;;9.47;;
31284;SDS011;56605;51.516;6.742;2023-03-01T07:35:59;24.43;;;10.57;;
31284;SDS011;56605;51.516;6.742;2023-03-01T07:38:25;19.67;;;9.60;;
31284;SDS011;56605;51.516;6.742;2023-03-01T07:40:50;18.63;;;9.77;;
31284;SDS011;56605;51.516;6.742;2023-03-01T07:43:15;15.97;;;9.17;;
31284;SDS011;56605;51.516;6.742;2023-03-01T07:45:40;24.07;;;9.73;;
31284;SDS011;56605;51.516;6.742;2023-03-01T07:48:05;16.70;;;9.00;;
31284;SDS011;56605;51.516;6.742;2023-03-01T07:50:31;17.93;;;10.70;;
31284;SDS011;56605;51.516;6.742;2023-03-01T07:52:56;16.60;;;8.47;;
31284;SDS011;56605;51.516;6.742;2023-03-01T07:55:21;14.73;;;9.15;;
31284;SDS011;56605;51.516;6.742;2023-03-01T07:57:46;19.60;;;9.70;;
31284;SDS011;56605;51.516;6.742;2023-03-01T08:00:11;17.37;;;9.10;;
31284;SDS011;56605;51.516;6.742;2023-03-01T08:02:37;19.40;;;9.70;;
31284;SDS011;56605;51.516;6.742;2023-03-01T08:05:02;18.60;;;9.90;;
31284;SDS011;56605;51.516;6.742;2023-03-01T08:07:28;15.67;;;8.63;;
31284;SDS011;56605;51.516;6.742;2023-03-01T08:09:53;17.40;;;9.07;;
31284;SDS011;56605;51.516;6.742;2023-03-01T08:12:18;19.67;;;9.43;;
31284;SDS011;56605;51.516;6.742;2023-03-01T08:14:43;17.30;;;9.80;;
31284;SDS011;56605;51.516;6.742;2023-03-01T08:17:09;18.13;;;9.23;;
31284;SDS011;56605;51.516;6.742;2023-03-01T08:19:34;19.20;;;8.70;;
31284;SDS011;56605;51.516;6.742;2023-03-01T08:22:00;15.73;;;7.97;;
31284;SDS011;56605;51.516;6.742;2023-03-01T08:24:26;17.10;;;9.33;;
31284;SDS011;56605;51.516;6.742;2023-03-01T08:26:51;16.53;;;9.33;;
31284;SDS011;56605;51.516;6.742;2023-03-01T08:29:16;16.83;;;9.10;;
31284;SDS011;56605;51.516;6.742;2023-03-01T08:31:41;23.00;;;8.00;;
31284;SDS011;56605;51.516;6.742;2023-03-01T08:34:10;14.17;;;8.57;;
31284;SDS011;56605;51.516;6.742;2023-03-01T08:36:37;12.07;;;8.07;;
31284;SDS011;56605;51.516;6.742;2023-03-01T08:39:03;12.83;;;7.07;;
31284;SDS011;56605;51.516;6.742;2023-03-01T08:41:28;14.77;;;7.63;;
31284;SDS011;56605;51.516;6.742;2023-03-01T08:43:53;14.90;;;7.97;;
31284;SDS011;56605;51.516;6.742;2023-03-01T08:46:23;14.93;;;8.63;;
31284;SDS011;56605;51.516;6.742;2023-03-01T08:48:48;14.60;;;7.37;;
31284;SDS011;56605;51.516;6.742;2023-03-01T08:51:18;14.90;;;7.87;;
31284;SDS011;56605;51.516;6.742;2023-03-01T08:53:43;15.63;;;8.33;;
31284;SDS011;56605;51.516;6.742;2023-03-01T08:56:09;11.77;;;8.00;;
31284;SDS011;56605;51.516;6.742;2023-03-01T08:58:34;13.37;;;8.30;;
31284;SDS011;56605;51.516;6.742;2023-03-01T09:00:59;13.37;;;7.37;;
31284;SDS011;56605;51.516;6.742;2023-03-01T09:03:25;11.97;;;7.30;;
31284;SDS011;56605;51.516;6.742;2023-03-01T09:05:51;15.87;;;7.80;;
31284;SDS011;56605;51.516;6.742;2023-03-01T09:08:16;11.87;;;7.47;;
31284;SDS011;56605;51.516;6.742;2023-03-01T09:10:41;11.87;;;7.23;;
31284;SDS011;56605;51.516;6.742;2023-03-01T09:13:07;13.47;;;6.90;;
31284;SDS011;56605;51.516;6.742;2023-03-01T09:15:32;14.93;;;7.87;;
31284;SDS011;56605;51.516;6.742;2023-03-01T09:17:58;13.93;;;8.30;;
31284;SDS011;56605;51.516;6.742;2023-03-01T09:20:24;12.47;;;7.97;;
31284;SDS011;56605;51.516;6.742;2023-03-01T09:22:49;12.70;;;6.03;;
31284;SDS011;56605;51.516;6.742;2023-03-01T09:25:14;13.63;;;7.93;;
31284;SDS011;56605;51.516;6.742;2023-03-01T09:27:39;14.97;;;7.67;;
31284;SDS011;56605;51.516;6.742;2023-03-01T09:30:04;14.83;;;7.27;;
31284;SDS011;56605;51.516;6.742;2023-03-01T09:32:30;14.13;;;8.33;;
31284;SDS011;56605;51.516;6.742;2023-03-01T09:34:56;12.13;;;7.53;;
31284;SDS011;56605;51.516;6.742;2023-03-01T09:37:29;14.47;;;6.80;;
31284;SDS011;56605;51.516;6.742;2023-03-01T09:39:54;15.20;;;6.47;;
31284;SDS011;56605;51.516;6.742;2023-03-01T09:42:20;12.70;;;6.60;;
31284;SDS011;56605;51.516;6.742;2023-03-01T09:44:51;12.60;;;8.03;;
31284;SDS011;56605;51.516;6.742;2023-03-01T09:47:21;15.13;;;8.23;;
31284;SDS011;56605;51.516;6.742;2023-03-01T09:49:57;13.73;;;8.77;;
31284;SDS011;56605;51.516;6.742;2023-03-01T09:52:25;10.37;;;7.50;;
31284;SDS011;56605;51.516;6.742;2023-03-01T09:54:52;14.97;;;8.37;;
31284;SDS011;56605;51.516;6.742;2023-03-01T09:57:20;12.53;;;7.20;;
31284;SDS011;56605;51.516;6.742;2023-03-01T10:02:39;12.70;;;6.97;;
31284;SDS011;56605;51.516;6.742;2023-03-01T10:05:20;11.87;;;6.50;;
31284;SDS011;56605;51.516;6.742;2023-03-01T10:10:34;14.00;;;7.53;;
31284;SDS011;56605;51.516;6.742;2023-03-01T10:15:43;10.57;;;5.97;;
31284;SDS011;56605;51.516;6.742;2023-03-01T10:18:16;13.82;;;6.32;;
31284;SDS011;56605;51.516;6.742;2023-03-01T10:20:50;12.32;;;6.40;;
31284;SDS011;56605;51.516;6.742;2023-03-01T10:23:17;10.40;;;6.82;;
31284;SDS011;56605;51.516;6.742;2023-03-01T10:25:44;10.45;;;7.03;;
31284;SDS011;56605;51.516;6.742;2023-03-01T10:28:18;16.67;;;8.13;;
31284;SDS011;56605;51.516;6.742;2023-03-01T10:30:45;11.57;;;7.53;;
31284;SDS011;56605;51.516;6.742;2023-03-01T10:33:13;10.73;;;6.45;;
31284;SDS011;56605;51.516;6.742;2023-03-01T10:35:40;11.38;;;7.00;;
31284;SDS011;56605;51.516;6.742;2023-03-01T10:38:10;11.95;;;6.30;;
31284;SDS011;56605;51.516;6.742;2023-03-01T10:40:35;11.50;;;7.65;;
31284;SDS011;56605;51.516;6.742;2023-03-01T10:43:02;10.23;;;5.93;;
31284;SDS011;56605;51.516;6.742;2023-03-01T10:48:09;12.77;;;6.60;;
31284;SDS011;56605;51.516;6.742;2023-03-01T10:50:36;8.80;;;6.07;;
31284;SDS011;56605;51.516;6.742;2023-03-01T10:53:03;11.93;;;6.88;;
31284;SDS011;56605;51.516;6.742;2023-03-01T10:55:31;10.60;;;7.03;;
31284;SDS011;56605;51.516;6.742;2023-03-01T11:00:32;10.45;;;6.75;;
31284;SDS011;56605;51.516;6.742;2023-03-01T11:05:23;10.82;;;6.30;;
31284;SDS011;56605;51.516;6.742;2023-03-01T11:07:53;11.52;;;7.15;;
31284;SDS011;56605;51.516;6.742;2023-03-01T11:10:28;8.70;;;5.43;;
31284;SDS011;56605;51.516;6.742;2023-03-01T11:13:05;9.60;;;5.50;;
31284;SDS011;56605;51.516;6.742;2023-03-01T11:15:31;9.23;;;6.10;;
31284;SDS011;56605;51.516;6.742;2023-03-01T11:17:56;10.82;;;6.05;;
31284;SDS011;56605;51.516;6.742;2023-03-01T11:20:27;12.55;;;7.55;;
31284;SDS011;56605;51.516;6.742;2023-03-01T11:22:55;6.85;;;5.10;;
31284;SDS011;56605;51.516;6.742;2023-03-01T11:25:25;7.55;;;5.60;;
31284;SDS011;56605;51.516;6.742;2023-03-01T11:27:51;12.85;;;6.22;;
31284;SDS011;56605;51.516;6.742;2023-03-01T11:30:21;8.32;;;6.10;;
31284;SDS011;56605;51.516;6.742;2023-03-01T11:35:28;9.68;;;6.88;;
31284;SDS011;56605;51.516;6.742;2023-03-01T11:40:40;7.88;;;5.40;;
31284;SDS011;56605;51.516;6.742;2023-03-01T11:45:43;11.27;;;5.57;;
31284;SDS011;56605;51.516;6.742;2023-03-01T11:48:22;11.38;;;6.40;;
31284;SDS011;56605;51.516;6.742;2023-03-01T11:50:52;11.13;;;6.38;;
31284;SDS011;56605;51.516;6.742;2023-03-01T11:53:27;11.20;;;6.72;;
31284;SDS011;56605;51.516;6.742;2023-03-01T11:56:05;9.20;;;6.32;;
31284;SDS011;56605;51.516;6.742;2023-03-01T11:58:56;10.70;;;6.60;;
31284;SDS011;56605;51.516;6.742;2023-03-01T12:04:28;12.02;;;6.70;;
31284;SDS011;56605;51.516;6.742;2023-03-01T12:06:57;8.85;;;5.40;;
31284;SDS011;56605;51.516;6.742;2023-03-01T12:09:31;11.75;;;5.97;;
31284;SDS011;56605;51.516;6.742;2023-03-01T12:14:42;9.80;;;6.30;;
31284;SDS011;56605;51.516;6.742;2023-03-01T12:17:16;9.45;;;5.72;;
31284;SDS011;56605;51.516;6.742;2023-03-01T12:19:53;11.70;;;7.03;;
31284;SDS011;56605;51.516;6.742;2023-03-01T12:22:34;10.10;;;5.55;;
31284;SDS011;56605;51.516;6.742;2023-03-01T12:30:25;8.75;;;5.65;;
31284;SDS011;56605;51.516;6.742;2023-03-01T12:32:58;14.68;;;6.13;;
31284;SDS011;56605;51.516;6.742;2023-03-01T12:38:06;10.13;;;5.72;;
31284;SDS011;56605;51.516;6.742;2023-03-01T12:46:01;10.00;;;6.35;;
31284;SDS011;56605;51.516;6.742;2023-03-01T12:48:40;8.93;;;6.38;;
31284;SDS011;56605;51.516;6.742;2023-03-01T12:51:08;9.48;;;6.63;;
31284;SDS011;56605;51.516;6.742;2023-03-01T12:53:36;10.77;;;5.50;;
31284;SDS011;56605;51.516;6.742;2023-03-01T12:56:06;10.32;;;5.60;;
31284;SDS011;56605;51.516;6.742;2023-03-01T12:58:50;10.40;;;5.40;;
31284;SDS011;56605;51.516;6.742;2023-03-01T13:01:26;9.80;;;6.15;;
31284;SDS011;56605;51.516;6.742;2023-03-01T13:04:06;9.98;;;6.00;;
31284;SDS011;56605;51.516;6.742;2023-03-01T13:09:08;10.82;;;5.47;;
31284;SDS011;56605;51.516;6.742;2023-03-01T13:11:36;8.82;;;5.63;;
31284;SDS011;56605;51.516;6.742;2023-03-01T13:16:48;11.73;;;6.38;;
31284;SDS011;56605;51.516;6.742;2023-03-01T13:19:23;13.38;;;6.80;;
31284;SDS011;56605;51.516;6.742;2023-03-01T13:21:50;11.80;;;7.55;;
31284;SDS011;56605;51.516;6.742;2023-03-01T13:24:26;12.85;;;9.05;;
31284;SDS011;56605;51.516;6.742;2023-03-01T13:32:29;7.93;;;5.47;;
31284;SDS011;56605;51.516;6.742;2023-03-01T13:37:26;12.23;;;6.63;;
31284;SDS011;56605;51.516;6.742;2023-03-01T13:39:54;10.90;;;7.38;;
31284;SDS011;56605;51.516;6.742;2023-03-01T13:42:33;10.65;;;6.78;;
31284;SDS011;56605;51.516;6.742;2023-03-01T13:44:59;9.98;;;6.88;;
31284;SDS011;56605;51.516;6.742;2023-03-01T13:47:25;8.88;;;5.88;;
31284;SDS011;56605;51.516;6.742;2023-03-01T13:49:53;10.32;;;6.03;;
31284;SDS011;56605;51.516;6.742;2023-03-01T13:52:42;9.07;;;6.43;;
31284;SDS011;56605;51.516;6.742;2023-03-01T13:57:39;9.73;;;6.85;;
31284;SDS011;56605;51.516;6.742;2023-03-01T14:00:04;10.07;;;6.55;;
31284;SDS011;56605;51.516;6.742;2023-03-01T14:02:30;11.77;;;6.43;;
31284;SDS011;56605;51.516;6.742;2023-03-01T14:04:57;11.20;;;5.90;;
31284;SDS011;56605;51.516;6.742;2023-03-01T14:07:23;9.98;;;6.13;;
31284;SDS011;56605;51.516;6.742;2023-03-01T14:09:52;9.68;;;5.57;;
31284;SDS011;56605;51.516;6.742;2023-03-01T14:15:02;10.23;;;5.97;;
31284;SDS011;56605;51.516;6.742;2023-03-01T14:17:46;10.20;;;6.10;;
31284;SDS011;56605;51.516;6.742;2023-03-01T14:20:17;12.40;;;6.90;;
31284;SDS011;56605;51.516;6.742;2023-03-01T14:22:42;13.73;;;7.13;;
31284;SDS011;56605;51.516;6.742;2023-03-01T14:25:19;11.32;;;7.22;;
31284;SDS011;56605;51.516;6.742;2023-03-01T14:27:45;9.95;;;5.97;;
31284;SDS011;56605;51.516;6.742;2023-03-01T14:32:51;12.77;;;6.70;;
31284;SDS011;56605;51.516;6.742;2023-03-01T14:35:22;10.77;;;7.40;;
31284;SDS011;56605;51.516;6.742;2023-03-01T14:37:48;12.27;;;7.35;;
31284;SDS011;56605;51.516;6.742;2023-03-01T14:40:25;9.77;;;7.30;;
31284;SDS011;56605;51.516;6.742;2023-03-01T14:42:51;12.60;;;8.35;;
31284;SDS011;56605;51.516;6.742;2023-03-01T14:45:17;11.88;;;7.78;;
31284;SDS011;56605;51.516;6.742;2023-03-01T14:47:43;14.57;;;7.55;;
31284;SDS011;56605;51.516;6.742;2023-03-01T14:50:24;11.57;;;6.43;;
31284;SDS011;56605;51.516;6.742;2023-03-01T14:52:50;13.05;;;8.27;;
31284;SDS011;56605;51.516;6.742;2023-03-01T14:55:20;12.55;;;8.27;;
31284;SDS011;56605;51.516;6.742;2023-03-01T14:57:47;11.25;;;7.10;;
31284;SDS011;56605;51.516;6.742;2023-03-01T15:00:16;13.32;;;7.07;;
31284;SDS011;56605;51.516;6.742;2023-03-01T15:02:42;13.27;;;7.32;;
31284;SDS011;56605;51.516;6.742;2023-03-01T15:05:08;12.57;;;6.85;;
31284;SDS011;56605;51.516;6.742;2023-03-01T15:07:34;13.15;;;7.10;;
31284;SDS011;56605;51.516;6.742;2023-03-01T15:10:00;12.18;;;7.65;;
31284;SDS011;56605;51.516;6.742;2023-03-01T15:14:54;10.80;;;7.00;;
31284;SDS011;56605;51.516;6.742;2023-03-01T15:17:28;11.95;;;7.93;;
31284;SDS011;56605;51.516;6.742;2023-03-01T15:19:55;10.80;;;6.82;;
31284;SDS011;56605;51.516;6.742;2023-03-01T15:22:20;13.32;;;6.32;;
31284;SDS011;56605;51.516;6.742;2023-03-01T15:24:46;11.25;;;5.93;;
31284;SDS011;56605;51.516;6.742;2023-03-01T15:27:14;10.60;;;6.32;;
31284;SDS011;56605;51.516;6.742;2023-03-01T15:29:40;7.90;;;6.28;;
31284;SDS011;56605;51.516;6.742;2023-03-01T15:32:32;15.05;;;6.93;;
31284;SDS011;56605;51.516;6.742;2023-03-01T15:34:58;9.45;;;6.50;;
31284;SDS011;56605;51.516;6.742;2023-03-01T15:42:43;8.02;;;5.75;;
31284;SDS011;56605;51.516;6.742;2023-03-01T15:45:20;9.13;;;6.03;;
31284;SDS011;56605;51.516;6.742;2023-03-01T15:47:47;11.82;;;6.13;;
31284;SDS011;56605;51.516;6.742;2023-03-01T15:50:26;9.65;;;6.65;;
31284;SDS011;56605;51.516;6.742;2023-03-01T15:52:52;8.68;;;5.75;;
31284;SDS011;56605;51.516;6.742;2023-03-01T15:55:19;10.30;;;5.75;;
31284;SDS011;56605;51.516;6.742;2023-03-01T15:57:44;12.48;;;6.20;;
31284;SDS011;56605;51.516;6.742;2023-03-01T16:00:10;11.45;;;5.80;;
31284;SDS011;56605;51.516;6.742;2023-03-01T16:02:36;9.75;;;6.35;;
31284;SDS011;56605;51.516;6.742;2023-03-01T16:05:02;8.95;;;6.00;;